createdAt,value
2022-09-22T00:01:06.080Z,100593.72
2022-09-22T00:03:37.296Z,100593.64
2022-09-22T00:06:11.948Z,100590.31
2022-09-22T00:08:41.188Z,100590.92
2022-09-22T00:11:16.838Z,100586.73
2022-09-22T00:13:45.991Z,100579.83
2022-09-22T00:16:14.872Z,100584.30
2022-09-22T00:18:42.569Z,100582.86
2022-09-22T00:21:14.770Z,100577.70
2022-09-22T00:23:43.343Z,100576.31
2022-09-22T00:26:14.283Z,100575.92
2022-09-22T00:28:42.762Z,100574.92
2022-09-22T00:31:12.698Z,100573.31
2022-09-22T00:33:43.298Z,100574.20
2022-09-22T00:36:11.385Z,100571.88
2022-09-22T00:38:39.757Z,100569.15
2022-09-22T00:41:10.491Z,100568.97
2022-09-22T00:43:38.962Z,100568.43
2022-09-22T00:46:15.405Z,100570.89
2022-09-22T00:48:50.061Z,100577.08
2022-09-22T00:51:21.407Z,100576.63
2022-09-22T00:53:49.894Z,100578.22
2022-09-22T00:56:25.437Z,100580.29
2022-09-22T00:58:57.800Z,100581.68
2022-09-22T01:01:25.728Z,100576.84
2022-09-22T01:03:54.463Z,100579.23
2022-09-22T01:06:25.008Z,100577.85
2022-09-22T01:08:54.189Z,100576.09
2022-09-22T01:11:22.669Z,100575.81
2022-09-22T01:14:18.801Z,100577.71
2022-09-22T01:16:55.602Z,100571.02
2022-09-22T01:19:42.180Z,100571.77
2022-09-22T01:22:29.300Z,100566.79
2022-09-22T01:25:15.694Z,100562.98
2022-09-22T01:27:55.746Z,100562.97
2022-09-22T01:30:24.840Z,100566.25
2022-09-22T01:33:12.766Z,100568.77
2022-09-22T01:35:57.643Z,100568.88
2022-09-22T01:38:25.306Z,100567.60
2022-09-22T01:40:58.290Z,100564.27
2022-09-22T01:43:44.896Z,100568.77
2022-09-22T01:46:16.079Z,100568.55
2022-09-22T01:48:45.542Z,100569.80
2022-09-22T01:51:17.303Z,100568.87
2022-09-22T01:53:48.857Z,100569.34
2022-09-22T01:56:18.358Z,100566.30
2022-09-22T01:58:53.721Z,100564.92
2022-09-22T02:01:26.127Z,100566.05
2022-09-22T02:04:00.595Z,100562.67
2022-09-22T02:06:38.186Z,100562.23
2022-09-22T02:09:17.024Z,100563.14
2022-09-22T02:11:45.065Z,100555.14
2022-09-22T02:14:12.931Z,100552.98
2022-09-22T02:16:41.326Z,100554.42
2022-09-22T02:19:19.018Z,100548.91
2022-09-22T02:21:48.118Z,100550.40
2022-09-22T02:24:51.922Z,100554.80
2022-09-22T02:27:26.651Z,100556.39
2022-09-22T02:29:54.877Z,100558.73
2022-09-22T02:32:23.595Z,100555.25
2022-09-22T02:34:52.689Z,100558.06
2022-09-22T02:37:20.674Z,100553.19
2022-09-22T02:39:48.442Z,100550.33
2022-09-22T02:42:19.277Z,100553.33
2022-09-22T02:44:56.236Z,100555.55
2022-09-22T02:47:29.955Z,100553.95
2022-09-22T02:49:58.438Z,100554.27
2022-09-22T02:52:26.216Z,100556.63
2022-09-22T02:54:54.372Z,100557.86
2022-09-22T02:57:22.616Z,100557.59
2022-09-22T02:59:50.622Z,100555.80
2022-09-22T03:02:18.486Z,100558.91
2022-09-22T03:04:46.423Z,100559.83
2022-09-22T03:07:14.430Z,100560.73
2022-09-22T03:09:42.227Z,100557.54
2022-09-22T03:12:10.564Z,100558.52
2022-09-22T03:14:39.860Z,100562.14
2022-09-22T03:17:07.608Z,100560.84
2022-09-22T03:19:35.287Z,100558.08
2022-09-22T03:22:03.067Z,100557.67
2022-09-22T03:24:30.738Z,100560.46
2022-09-22T03:26:58.728Z,100562.11
2022-09-22T03:29:26.550Z,100564.02
2022-09-22T03:31:54.171Z,100564.48
2022-09-22T03:34:22.076Z,100566.00
2022-09-22T03:36:50.455Z,100563.84
2022-09-22T03:39:18.356Z,100564.70
2022-09-22T03:41:46.793Z,100566.05
2022-09-22T03:44:14.520Z,100567.27
2022-09-22T03:46:42.275Z,100567.02
2022-09-22T03:49:10.294Z,100569.17
2022-09-22T03:51:38.876Z,100569.62
2022-09-22T03:54:07.099Z,100571.48
2022-09-22T03:56:35.134Z,100568.88
2022-09-22T03:59:02.852Z,100563.71
2022-09-22T04:01:30.734Z,100564.56
2022-09-22T04:03:58.517Z,100564.96
2022-09-22T04:06:26.386Z,100564.21
2022-09-22T04:08:54.454Z,100565.19
2022-09-22T04:11:23.558Z,100566.58
2022-09-22T04:13:51.518Z,100566.67
2022-09-22T04:16:19.380Z,100568.02
2022-09-22T04:18:47.660Z,100571.72
2022-09-22T04:21:15.513Z,100572.34
2022-09-22T04:23:43.344Z,100577.44
2022-09-22T04:26:11.037Z,100573.27
2022-09-22T04:28:38.815Z,100575.91
2022-09-22T04:31:06.636Z,100579.63
2022-09-22T04:33:34.460Z,100580.29
2022-09-22T04:36:02.317Z,100579.08
2022-09-22T04:38:29.966Z,100580.80
2022-09-22T04:40:58.357Z,100583.64
2022-09-22T04:43:26.210Z,100583.34
2022-09-22T04:45:54.151Z,100582.02
2022-09-22T04:48:22.055Z,100583.33
2022-09-22T04:50:49.732Z,100587.61
2022-09-22T04:53:17.569Z,100584.48
2022-09-22T04:55:45.549Z,100590.83
2022-09-22T04:58:14.166Z,100589.39
2022-09-22T05:00:42.253Z,100587.12
2022-09-22T05:03:11.031Z,100585.81
2022-09-22T05:05:39.288Z,100586.11
2022-09-22T05:08:07.867Z,100581.61
2022-09-22T05:10:37.047Z,100577.58
2022-09-22T05:13:05.803Z,100580.23
2022-09-22T05:15:34.940Z,100581.31
2022-09-22T05:18:03.021Z,100578.89
2022-09-22T05:20:30.974Z,100575.50
2022-09-22T05:22:58.955Z,100573.72
2022-09-22T05:25:26.962Z,100578.71
2022-09-22T05:27:55.589Z,100578.06
2022-09-22T05:30:25.717Z,100580.88
2022-09-22T05:32:53.785Z,100585.39
2022-09-22T05:35:22.674Z,100584.55
2022-09-22T05:37:51.562Z,100580.77
2022-09-22T05:40:20.560Z,100576.16
2022-09-22T05:42:49.149Z,100576.83
2022-09-22T05:45:18.640Z,100577.70
2022-09-22T05:47:46.977Z,100582.73
2022-09-22T05:50:15.708Z,100582.40
2022-09-22T05:52:43.909Z,100584.41
2022-09-22T05:55:12.564Z,100585.58
2022-09-22T05:57:40.637Z,100585.67
2022-09-22T06:00:08.896Z,100582.86
2022-09-22T06:02:39.957Z,100586.32
2022-09-22T06:05:08.127Z,100589.72
2022-09-22T06:07:35.837Z,100591.39
2022-09-22T06:10:03.886Z,100593.15
2022-09-22T06:12:31.738Z,100596.19
2022-09-22T06:14:59.585Z,100594.83
2022-09-22T06:17:27.317Z,100602.66
2022-09-22T06:19:55.625Z,100605.35
2022-09-22T06:22:24.237Z,100603.85
2022-09-22T06:24:52.377Z,100608.56
2022-09-22T06:27:20.106Z,100606.98
2022-09-22T06:29:48.017Z,100606.64
2022-09-22T06:32:16.500Z,100607.64
2022-09-22T06:34:45.895Z,100611.35
2022-09-22T06:37:14.483Z,100610.00
2022-09-22T06:39:42.172Z,100615.58
2022-09-22T06:42:11.064Z,100613.36
2022-09-22T06:44:39.205Z,100609.00
2022-09-22T06:47:08.583Z,100606.77
2022-09-22T06:49:36.489Z,100608.75
2022-09-22T06:52:04.202Z,100610.82
2022-09-22T06:54:32.037Z,100609.95
2022-09-22T06:56:59.759Z,100609.95
2022-09-22T06:59:27.705Z,100607.52
2022-09-22T07:01:55.537Z,100611.58
2022-09-22T07:04:23.506Z,100612.89
2022-09-22T07:06:52.042Z,100608.88
2022-09-22T07:09:20.115Z,100606.09
2022-09-22T07:11:49.209Z,100605.17
2022-09-22T07:14:19.531Z,100602.68
2022-09-22T07:16:47.955Z,100605.27
2022-09-22T07:19:15.718Z,100607.46
2022-09-22T07:21:44.462Z,100606.63
2022-09-22T07:24:12.142Z,100605.33
2022-09-22T07:26:40.058Z,100608.98
2022-09-22T07:29:11.871Z,100611.94
2022-09-22T07:31:41.026Z,100610.48
2022-09-22T07:34:08.817Z,100610.50
2022-09-22T07:36:40.147Z,100609.10
2022-09-22T07:39:11.223Z,100607.13
2022-09-22T07:41:43.660Z,100606.81
2022-09-22T07:44:44.655Z,100609.29
2022-09-22T07:47:12.788Z,100609.48
2022-09-22T07:49:40.489Z,100610.98
2022-09-22T07:52:08.274Z,100610.64
2022-09-22T07:54:37.107Z,100609.31
2022-09-22T07:57:10.380Z,100608.65
2022-09-22T07:59:39.818Z,100609.80
2022-09-22T08:02:08.879Z,100612.50
2022-09-22T08:04:37.988Z,100615.77
2022-09-22T08:07:05.713Z,100615.28
2022-09-22T08:09:33.822Z,100617.14
2022-09-22T08:12:02.473Z,100615.05
2022-09-22T08:14:30.580Z,100615.38
2022-09-22T08:16:58.308Z,100615.37
2022-09-22T08:19:26.612Z,100615.30
2022-09-22T08:21:54.648Z,100617.55
2022-09-22T08:24:23.542Z,100614.02
2022-09-22T08:26:52.928Z,100614.88
2022-09-22T08:29:21.977Z,100613.44
2022-09-22T08:31:51.523Z,100616.00
2022-09-22T08:34:20.372Z,100617.00
2022-09-22T08:36:48.981Z,100618.22
2022-09-22T08:39:17.779Z,100623.66
2022-09-22T08:41:48.346Z,100623.97
2022-09-22T08:44:23.087Z,100622.52
2022-09-22T08:46:53.155Z,100623.27
2022-09-22T08:49:51.302Z,100620.60
2022-09-22T08:52:45.104Z,100618.08
2022-09-22T08:55:18.011Z,100613.13
2022-09-22T08:58:21.244Z,100613.55
2022-09-22T09:01:09.130Z,100608.08
2022-09-22T09:04:00.022Z,100607.14
2022-09-22T09:06:43.210Z,100601.68
2022-09-22T09:09:31.250Z,100603.27
2022-09-22T09:12:08.263Z,100601.48
2022-09-22T09:14:35.902Z,100600.33
2022-09-22T09:17:12.841Z,100599.23
2022-09-22T09:19:40.690Z,100596.95
2022-09-22T09:22:19.172Z,100599.05
2022-09-22T09:27:41.824Z,100595.60
2022-09-22T09:30:18.093Z,100593.15
2022-09-22T09:32:49.166Z,100588.12
2022-09-22T09:35:19.064Z,100583.65
2022-09-22T09:37:47.513Z,100583.14
2022-09-22T09:40:18.330Z,100582.24
2022-09-22T09:42:47.477Z,100578.17
2022-09-22T09:45:17.022Z,100578.61
2022-09-22T09:48:01.622Z,100578.80
2022-09-22T09:50:32.207Z,100579.88
2022-09-22T09:53:00.460Z,100575.39
2022-09-22T09:55:28.279Z,100574.94
2022-09-22T09:58:06.768Z,100578.86
2022-09-22T10:00:52.704Z,100569.83
2022-09-22T10:03:30.555Z,100568.19
2022-09-22T10:06:04.560Z,100569.34
2022-09-22T10:08:36.783Z,100569.02
2022-09-22T10:11:04.939Z,100571.66
2022-09-22T10:13:34.206Z,100573.38
2022-09-22T10:16:02.454Z,100572.86
2022-09-22T10:18:41.243Z,100570.87
2022-09-22T10:21:20.565Z,100569.95
2022-09-22T10:23:53.377Z,100563.67
2022-09-22T10:26:29.411Z,100563.48
2022-09-22T10:29:12.321Z,100562.01
2022-09-22T10:31:41.881Z,100566.02
2022-09-22T10:34:39.120Z,100569.86
2022-09-22T10:37:11.729Z,100583.21
2022-09-22T10:39:59.298Z,100587.17
2022-09-22T10:42:32.928Z,100587.56
2022-09-22T10:45:03.114Z,100586.80
2022-09-22T10:47:40.765Z,100586.08
2022-09-22T10:50:23.892Z,100579.11
2022-09-22T10:53:03.576Z,100577.11
2022-09-22T10:55:35.879Z,100572.92
2022-09-22T10:58:09.438Z,100574.38
2022-09-22T11:00:42.070Z,100576.27
2022-09-22T11:03:28.271Z,100574.48
2022-09-22T11:06:23.873Z,100569.25
2022-09-22T11:09:10.123Z,100564.79
2022-09-22T11:12:07.948Z,100560.54
2022-09-22T11:14:50.903Z,100553.79
2022-09-22T11:17:21.447Z,100549.67
2022-09-22T11:20:07.897Z,100547.39
2022-09-22T11:22:49.027Z,100543.86
2022-09-22T11:25:26.218Z,100543.29
2022-09-22T11:28:17.540Z,100542.52
2022-09-22T11:30:57.630Z,100537.95
2022-09-22T11:33:46.637Z,100534.58
2022-09-22T11:36:30.153Z,100533.52
2022-09-22T11:38:58.651Z,100530.27
2022-09-22T11:41:32.454Z,100524.93
2022-09-22T11:44:15.682Z,100522.05
2022-09-22T11:47:02.867Z,100519.90
2022-09-22T11:49:30.458Z,100509.02
2022-09-22T11:52:17.721Z,100502.39
2022-09-22T11:54:49.921Z,100498.19
2022-09-22T11:57:20.374Z,100498.90
2022-09-22T11:59:53.259Z,100498.69
2022-09-22T12:02:27.201Z,100495.08
2022-09-22T12:05:17.602Z,100495.91
2022-09-22T12:07:50.137Z,100503.27
2022-09-22T12:10:47.600Z,100498.52
2022-09-22T12:13:15.471Z,100493.27
2022-09-22T12:15:43.204Z,100493.62
2022-09-22T12:18:16.559Z,100486.64
2022-09-22T12:20:49.552Z,100485.56
2022-09-22T12:23:23.306Z,100487.80
2022-09-22T12:25:55.435Z,100486.03
2022-09-22T12:28:25.806Z,100487.20
2022-09-22T12:31:18.931Z,100483.62
2022-09-22T12:33:48.907Z,100482.53
2022-09-22T12:36:17.989Z,100482.88
2022-09-22T12:38:46.144Z,100483.84
2022-09-22T12:41:18.722Z,100487.04
2022-09-22T12:43:47.988Z,100486.41
2022-09-22T12:46:25.386Z,100489.70
2022-09-22T12:48:53.891Z,100489.52
2022-09-22T12:51:24.473Z,100481.64
2022-09-22T12:54:12.220Z,100488.15
2022-09-22T12:56:43.009Z,100480.80
2022-09-22T12:59:29.487Z,100475.15
2022-09-22T13:02:16.149Z,100476.73
2022-09-22T13:04:56.306Z,100476.88
2022-09-22T13:07:39.664Z,100475.93
2022-09-22T13:10:25.589Z,100474.93
2022-09-22T13:12:59.410Z,100476.30
2022-09-22T13:15:27.911Z,100476.55
2022-09-22T13:17:55.749Z,100476.81
2022-09-22T13:20:33.519Z,100474.92
2022-09-22T13:23:05.767Z,100472.74
2022-09-22T13:25:33.547Z,100472.45
2022-09-22T13:28:21.622Z,100472.25
2022-09-22T13:31:03.430Z,100473.04
2022-09-22T13:33:35.350Z,100470.66
2022-09-22T13:36:05.985Z,100472.63
2022-09-22T13:38:39.641Z,100472.60
2022-09-22T13:41:12.176Z,100469.71
2022-09-22T13:43:42.409Z,100464.95
2022-09-22T13:46:19.687Z,100465.72
2022-09-22T13:48:47.895Z,100465.31
2022-09-22T13:51:17.006Z,100463.62
2022-09-22T13:53:47.662Z,100464.64
2022-09-22T13:56:21.823Z,100465.00
2022-09-22T13:58:51.307Z,100464.61
2022-09-22T14:01:23.170Z,100465.02
2022-09-22T14:03:51.925Z,100462.63
2022-09-22T14:06:27.181Z,100459.54
2022-09-22T14:08:58.032Z,100459.70
2022-09-22T14:11:31.399Z,100457.95
2022-09-22T14:14:02.864Z,100464.00
2022-09-22T14:16:30.722Z,100459.15
2022-09-22T14:18:58.742Z,100461.45
2022-09-22T14:21:26.683Z,100458.20
2022-09-22T14:23:55.953Z,100458.55
2022-09-22T14:26:33.757Z,100456.71
2022-09-22T14:29:14.929Z,100458.01
2022-09-22T14:31:46.081Z,100456.98
2022-09-22T14:34:17.989Z,100454.33
2022-09-22T14:36:46.927Z,100460.58
2022-09-22T14:39:17.742Z,100461.23
2022-09-22T14:41:59.758Z,100461.64
2022-09-22T14:44:42.575Z,100461.48
2022-09-22T14:47:19.244Z,100461.08
2022-09-22T14:49:48.849Z,100460.58
2022-09-22T14:52:27.061Z,100461.93
2022-09-22T14:54:56.445Z,100461.67
2022-09-22T14:57:25.337Z,100463.09
2022-09-22T15:00:13.284Z,100462.55
2022-09-22T15:02:43.027Z,100465.19
2022-09-22T15:05:26.383Z,100468.54
2022-09-22T15:07:58.386Z,100474.10
2022-09-22T15:10:30.578Z,100471.67
2022-09-22T15:13:21.061Z,100469.30
2022-09-22T15:15:49.606Z,100466.59
2022-09-22T15:18:19.343Z,100468.66
2022-09-22T15:20:58.465Z,100469.84
2022-09-22T15:23:45.603Z,100476.02
2022-09-22T15:26:25.108Z,100477.25
2022-09-22T15:28:55.161Z,100477.17
2022-09-22T15:31:27.010Z,100475.50
2022-09-22T15:33:59.468Z,100473.63
2022-09-22T15:36:28.386Z,100471.31
2022-09-22T15:39:01.033Z,100473.45
2022-09-22T15:41:28.830Z,100473.79
2022-09-22T15:43:56.999Z,100471.46
2022-09-22T15:46:36.129Z,100477.04
2022-09-22T15:49:15.257Z,100482.23
2022-09-22T15:51:43.023Z,100481.32
2022-09-22T15:54:14.882Z,100487.06
2022-09-22T15:56:43.118Z,100497.47
2022-09-22T15:59:22.373Z,100505.38
2022-09-22T16:01:52.139Z,100510.17
2022-09-22T16:04:20.294Z,100505.96
2022-09-22T16:07:01.341Z,100508.38
2022-09-22T16:09:29.117Z,100508.46
2022-09-22T16:11:57.227Z,100513.64
2022-09-22T16:14:25.467Z,100513.98
2022-09-22T16:16:53.233Z,100515.33
2022-09-22T16:19:21.098Z,100512.90
2022-09-22T16:21:53.146Z,100511.48
2022-09-22T16:24:22.720Z,100510.30
2022-09-22T16:26:51.866Z,100511.27
2022-09-22T16:29:19.803Z,100514.43
2022-09-22T16:31:47.801Z,100521.99
2022-09-22T16:34:16.283Z,100522.19
2022-09-22T16:36:44.650Z,100524.90
2022-09-22T16:39:12.345Z,100527.27
2022-09-22T16:41:44.369Z,100531.24
2022-09-22T16:44:13.054Z,100534.11
2022-09-22T16:46:40.866Z,100535.23
2022-09-22T16:49:18.864Z,100536.48
2022-09-22T16:51:50.676Z,100535.17
2022-09-22T16:54:19.569Z,100538.05
2022-09-22T16:56:48.832Z,100535.81
2022-09-22T16:59:18.303Z,100539.06
2022-09-22T17:01:46.383Z,100537.73
2022-09-22T17:04:18.664Z,100539.02
2022-09-22T17:06:47.520Z,100541.55
2022-09-22T17:09:16.000Z,100544.66
2022-09-22T17:11:45.607Z,100549.60
2022-09-22T17:14:15.628Z,100547.81
2022-09-22T17:16:49.329Z,100547.17
2022-09-22T17:19:21.493Z,100552.40
2022-09-22T17:21:52.125Z,100551.48
2022-09-22T17:24:19.822Z,100549.19
2022-09-22T17:26:52.260Z,100551.27
2022-09-22T17:29:26.461Z,100553.45
2022-09-22T17:31:59.905Z,100552.78
2022-09-22T17:34:28.767Z,100556.02
2022-09-22T17:36:57.920Z,100557.67
2022-09-22T17:39:26.805Z,100557.11
2022-09-22T17:41:55.159Z,100559.03
2022-09-22T17:44:23.298Z,100561.55
2022-09-22T17:47:11.028Z,100560.88
2022-09-22T17:49:58.403Z,100560.10
2022-09-22T17:52:29.387Z,100566.41
2022-09-22T17:55:08.202Z,100567.60
2022-09-22T17:57:38.079Z,100570.66
2022-09-22T18:00:08.240Z,100572.27
2022-09-22T18:02:36.982Z,100575.59
2022-09-22T18:05:06.243Z,100577.04
2022-09-22T18:07:35.319Z,100576.92
2022-09-22T18:10:03.655Z,100585.13
2022-09-22T18:12:32.365Z,100586.51
2022-09-22T18:15:03.918Z,100585.89
2022-09-22T18:17:33.127Z,100586.89
2022-09-22T18:20:01.114Z,100589.23
2022-09-22T18:22:29.895Z,100589.20
2022-09-22T18:24:58.266Z,100592.01
2022-09-22T18:27:29.199Z,100592.69
2022-09-22T18:29:59.932Z,100594.39
2022-09-22T18:32:28.327Z,100597.54
2022-09-22T18:34:56.277Z,100597.84
2022-09-22T18:37:25.269Z,100605.03
2022-09-22T18:39:53.274Z,100604.43
2022-09-22T18:42:24.190Z,100603.44
2022-09-22T18:44:52.416Z,100608.09
2022-09-22T18:47:21.168Z,100609.50
2022-09-22T18:49:50.325Z,100608.46
2022-09-22T18:52:24.149Z,100610.84
2022-09-22T18:54:54.370Z,100616.60
2022-09-22T18:57:24.684Z,100611.38
2022-09-22T18:59:54.188Z,100611.15
2022-09-22T19:02:22.612Z,100611.77
2022-09-22T19:04:51.857Z,100614.20
2022-09-22T19:07:42.110Z,100617.53
2022-09-22T19:10:11.766Z,100615.68
2022-09-22T19:12:40.031Z,100615.70
2022-09-22T19:15:16.902Z,100613.92
2022-09-22T19:17:46.332Z,100612.67
2022-09-22T19:20:15.109Z,100613.64
2022-09-22T19:22:43.186Z,100615.33
2022-09-22T19:25:12.156Z,100616.31
2022-09-22T19:27:40.161Z,100621.49
2022-09-22T19:30:09.385Z,100620.78
2022-09-22T19:32:38.957Z,100623.34
2022-09-22T19:35:07.672Z,100621.66
2022-09-22T19:37:40.723Z,100622.73
2022-09-22T19:40:13.753Z,100619.52
2022-09-22T19:42:42.283Z,100623.31
2022-09-22T19:45:10.152Z,100625.77
2022-09-22T19:47:39.649Z,100626.62
2022-09-22T19:50:08.107Z,100626.27
2022-09-22T19:52:36.314Z,100626.89
2022-09-22T19:55:07.467Z,100630.34
2022-09-22T19:57:41.354Z,100627.98
2022-09-22T20:00:17.365Z,100628.63
2022-09-22T20:02:45.758Z,100630.90
2022-09-22T20:05:18.420Z,100628.38
2022-09-22T20:07:46.755Z,100630.30
2022-09-22T20:10:14.827Z,100630.71
2022-09-22T20:12:42.996Z,100629.20
2022-09-22T20:15:15.543Z,100630.25
2022-09-22T20:17:46.161Z,100627.85
2022-09-22T20:20:15.940Z,100624.75
2022-09-22T20:22:45.730Z,100618.23
2022-09-22T20:25:24.857Z,100616.64
2022-09-22T20:27:52.825Z,100618.40
2022-09-22T20:30:21.065Z,100617.38
2022-09-22T20:32:49.069Z,100614.27
2022-09-22T20:35:18.472Z,100609.73
2022-09-22T20:37:46.349Z,100608.81
2022-09-22T20:40:21.460Z,100607.78
2022-09-22T20:42:50.907Z,100609.38
2022-09-22T20:45:22.096Z,100609.56
2022-09-22T20:47:49.890Z,100610.05
2022-09-22T20:50:17.852Z,100612.43
2022-09-22T20:52:45.619Z,100611.36
2022-09-22T20:55:13.891Z,100609.48
2022-09-22T20:57:48.335Z,100611.79
2022-09-22T21:00:16.274Z,100608.98
2022-09-22T21:02:44.154Z,100607.33
2022-09-22T21:05:12.038Z,100608.16
2022-09-22T21:07:39.783Z,100608.66
2022-09-22T21:10:26.458Z,100614.99
2022-09-22T21:12:56.203Z,100616.64
2022-09-22T21:15:24.352Z,100614.54
2022-09-22T21:17:52.986Z,100612.32
2022-09-22T21:20:21.638Z,100614.98
2022-09-22T21:22:49.383Z,100613.33
2022-09-22T21:25:17.030Z,100614.25
2022-09-22T21:27:45.323Z,100610.24
2022-09-22T21:30:13.798Z,100605.45
2022-09-22T21:32:41.610Z,100610.02
2022-09-22T21:35:09.560Z,100612.92
2022-09-22T21:37:37.250Z,100609.33
2022-09-22T21:40:05.268Z,100609.10
2022-09-22T21:42:33.154Z,100608.42
2022-09-22T21:45:01.225Z,100603.84
2022-09-22T21:47:29.097Z,100601.66
2022-09-22T21:49:56.947Z,100600.65
2022-09-22T21:52:24.594Z,100601.17
2022-09-22T21:54:52.279Z,100601.58
2022-09-22T21:57:20.006Z,100603.48
2022-09-22T21:59:47.653Z,100603.45
2022-09-22T22:02:15.328Z,100602.55
2022-09-22T22:04:43.233Z,100603.00
2022-09-22T22:07:12.085Z,100602.14
2022-09-22T22:09:39.779Z,100604.44
2022-09-22T22:12:08.984Z,100602.96
2022-09-22T22:14:36.660Z,100602.39
2022-09-22T22:17:05.767Z,100595.55
2022-09-22T22:19:34.643Z,100600.04
2022-09-22T22:22:02.578Z,100598.57
2022-09-22T22:24:43.545Z,100600.46
2022-09-22T22:27:11.332Z,100601.54
2022-09-22T22:29:40.392Z,100600.63
2022-09-22T22:32:10.343Z,100602.64
2022-09-22T22:34:38.136Z,100602.86
2022-09-22T22:37:09.705Z,100602.92
2022-09-22T22:39:38.398Z,100601.97
2022-09-22T22:42:07.129Z,100599.27
2022-09-22T22:44:35.434Z,100595.88
2022-09-22T22:47:03.556Z,100596.58
2022-09-22T22:49:31.364Z,100595.23
2022-09-22T22:51:59.176Z,100594.57
2022-09-22T22:54:26.896Z,100595.61
2022-09-22T22:56:54.733Z,100593.72
2022-09-22T22:59:22.413Z,100596.04
2022-09-22T23:01:50.307Z,100591.73
2022-09-22T23:04:18.139Z,100591.98
2022-09-22T23:06:46.284Z,100588.23
2022-09-22T23:09:16.519Z,100585.14
2022-09-22T23:11:45.720Z,100588.08
2022-09-22T23:14:14.293Z,100587.27
2022-09-22T23:16:46.196Z,100585.52
2022-09-22T23:19:16.098Z,100588.28
2022-09-22T23:21:45.169Z,100586.95
2022-09-22T23:24:15.433Z,100586.26
2022-09-22T23:26:43.672Z,100586.28
2022-09-22T23:29:11.775Z,100588.83
2022-09-22T23:31:39.719Z,100590.14
2022-09-22T23:34:07.531Z,100584.28
2022-09-22T23:36:35.704Z,100584.39
2022-09-22T23:39:04.622Z,100584.15
2022-09-22T23:41:34.068Z,100585.13
2022-09-22T23:44:03.382Z,100585.67
2022-09-22T23:46:31.886Z,100587.48
2022-09-22T23:49:00.355Z,100587.41
2022-09-22T23:51:28.615Z,100582.63
2022-09-22T23:53:56.508Z,100579.41
2022-09-22T23:56:24.307Z,100578.58
2022-09-22T23:58:52.560Z,100580.52
